Time;durP1;ratioP1;P1;durP2;ratioP2;P2;SDS_P1;SDS_P2;PMS_P1;PMS_P2;Temp;Humidity;BMP_temperature;BMP_pressure;BME280_temperature;BME280_humidity;BME280_pressure;Samples;Min_cycle;Max_cycle;Signal;HPM_P1;HPM_P2
2020/12/27 00:01:01;;;;;;;33.08;14.35;;;;;;;-0.09;78.58;100939.93;1664442;81;26322;-78
2020/12/27 00:03:28;;;;;;;30.15;14.68;;;;;;;-0.13;78.62;100931.86;1722842;81;25820;-78
2020/12/27 00:05:55;;;;;;;29.63;13.30;;;;;;;-0.11;78.58;100934.41;1702680;81;28243;-78
2020/12/27 00:08:23;;;;;;;25.17;11.73;;;;;;;-0.13;78.42;100931.86;1720339;81;25915;-78
2020/12/27 00:10:50;;;;;;;22.65;11.22;;;;;;;-0.18;78.22;100932.69;1639417;84;26437;-77
2020/12/27 00:13:17;;;;;;;29.00;13.25;;;;;;;-0.24;78.22;100936.23;1673377;84;25852;-78
2020/12/27 00:15:45;;;;;;;27.67;12.07;;;;;;;-0.27;78.40;100934.66;1679066;81;26580;-77
2020/12/27 00:18:12;;;;;;;30.48;13.62;;;;;;;-0.28;78.45;100932.95;1731524;81;28508;-77
2020/12/27 00:20:39;;;;;;;31.48;14.03;;;;;;;-0.25;78.64;100928.80;1679567;81;26493;-78
2020/12/27 00:23:07;;;;;;;28.92;13.40;;;;;;;-0.21;78.65;100928.09;1700780;81;25769;-78
2020/12/27 00:25:39;;;;;;;31.37;14.75;;;;;;;-0.19;78.68;100932.77;1697643;82;25860;-78
2020/12/27 00:28:06;;;;;;;32.17;14.28;;;;;;;-0.19;78.61;100934.94;1729226;81;26335;-78
2020/12/27 00:30:33;;;;;;;28.95;12.45;;;;;;;-0.18;78.62;100942.37;1694295;81;27604;-78
2020/12/27 00:33:01;;;;;;;32.83;14.45;;;;;;;-0.20;78.65;100935.91;1698228;81;26421;-77
2020/12/27 00:35:28;;;;;;;29.07;13.72;;;;;;;-0.22;78.64;100933.86;1704616;81;25835;-78
2020/12/27 00:37:56;;;;;;;28.85;12.78;;;;;;;-0.23;78.60;100933.95;1714695;82;26207;-78
2020/12/27 00:40:23;;;;;;;30.32;13.48;;;;;;;-0.24;78.57;100932.28;1677032;81;25859;-78
2020/12/27 00:42:50;;;;;;;29.67;12.18;;;;;;;-0.25;78.59;100930.59;1721188;81;27605;-78
2020/12/27 00:45:18;;;;;;;31.65;13.13;;;;;;;-0.26;78.61;100926.29;1702394;82;25832;-77
2020/12/27 00:47:45;;;;;;;28.02;12.70;;;;;;;-0.30;78.59;100924.33;1728354;81;25847;-78
2020/12/27 00:50:12;;;;;;;26.73;12.95;;;;;;;-0.31;78.54;100924.45;1702715;81;25799;-77
2020/12/27 00:52:40;;;;;;;24.87;12.35;;;;;;;-0.34;78.52;100920.24;1698933;81;25438;-78
2020/12/27 00:55:07;;;;;;;26.50;11.40;;;;;;;-0.35;78.44;100922.52;1707041;81;27563;-78
2020/12/27 00:57:35;;;;;;;26.15;12.70;;;;;;;-0.36;78.49;100921.30;1728458;81;25762;-78
2020/12/27 01:00:04;;;;;;;28.05;12.65;;;;;;;-0.36;78.58;100917.34;1693125;81;25753;-78
2020/12/27 01:02:33;;;;;;;32.25;13.22;;;;;;;-0.36;78.54;100919.98;1708937;81;26172;-78
2020/12/27 01:05:19;;;;;;;25.75;12.58;;;;;;;-0.34;78.59;100908.90;1702694;81;25905;-77
2020/12/27 01:07:46;;;;;;;26.55;12.15;;;;;;;-0.32;78.65;100907.81;1728538;81;28491;-79
2020/12/27 01:10:15;;;;;;;30.75;12.93;;;;;;;-0.29;78.53;100904.13;1700366;81;25773;-78
2020/12/27 01:12:48;;;;;;;33.63;14.47;;;;;;;-0.29;78.53;100902.34;1697309;83;25914;-78
2020/12/27 01:15:15;;;;;;;32.48;14.40;;;;;;;-0.28;78.46;100900.55;1683887;83;25895;-78
2020/12/27 01:18:02;;;;;;;30.02;13.45;;;;;;;-0.29;78.33;100904.97;1710238;81;25375;-77
2020/12/27 01:20:29;;;;;;;31.02;14.23;;;;;;;-0.34;78.22;100895.23;1691526;81;27540;-78
2020/12/27 01:22:57;;;;;;;25.17;13.60;;;;;;;-0.37;78.28;100890.69;1699279;83;25795;-78
2020/12/27 01:25:26;;;;;;;29.52;14.50;;;;;;;-0.38;78.25;100891.16;1715478;81;26539;-78
2020/12/27 01:27:53;;;;;;;37.78;13.75;;;;;;;-0.38;78.38;100887.67;1730411;81;25946;-78
2020/12/27 01:30:21;;;;;;;29.02;14.68;;;;;;;-0.41;78.21;100880.86;1697491;81;25806;-77
2020/12/27 01:32:50;;;;;;;30.43;13.88;;;;;;;-0.43;78.31;100881.45;1699074;83;27560;-78
2020/12/27 01:35:18;;;;;;;31.12;15.03;;;;;;;-0.42;78.28;100874.37;1687648;81;26515;-78
2020/12/27 01:37:46;;;;;;;31.80;15.75;;;;;;;-0.43;78.34;100878.81;1710755;81;25853;-78
2020/12/27 01:40:14;;;;;;;32.75;14.83;;;;;;;-0.44;78.28;100874.95;1708800;81;25717;-78
2020/12/27 01:42:42;;;;;;;28.07;13.25;;;;;;;-0.44;78.25;100872.33;1688485;81;25824;-78
2020/12/27 01:45:09;;;;;;;31.33;15.32;;;;;;;-0.45;78.20;100875.92;1708565;83;27084;-78
2020/12/27 01:47:57;;;;;;;34.33;17.80;;;;;;;-0.41;78.22;100867.70;1771010;79;27935;-78
2020/12/27 01:50:25;;;;;;;29.20;15.65;;;;;;;-0.28;77.66;100859.26;1679837;83;26303;-78
2020/12/27 01:52:53;;;;;;;32.73;15.88;;;;;;;-0.35;77.72;100862.00;1688886;83;27083;-78
2020/12/27 01:55:22;;;;;;;26.52;13.62;;;;;;;-0.38;77.85;100854.30;1724412;82;25747;-78
2020/12/27 01:58:12;;;;;;;31.68;14.95;;;;;;;-0.39;77.97;100850.02;1674936;83;25863;-78
2020/12/27 02:00:39;;;;;;;25.43;12.63;;;;;;;-0.38;78.03;100845.56;1650641;83;26454;-78
2020/12/27 02:03:16;;;;;;;30.27;13.40;;;;;;;-0.35;77.97;100840.09;1809223;77;25788;-78
2020/12/27 02:05:44;;;;;;;23.62;12.23;;;;;;;-0.42;77.84;100833.12;1754222;79;25787;-78
2020/12/27 02:08:13;;;;;;;29.82;13.83;;;;;;;-0.44;77.70;100844.23;1745180;80;27520;-78
2020/12/27 02:10:43;;;;;;;32.80;15.18;;;;;;;-0.45;77.83;100840.41;1749959;80;25696;-78
2020/12/27 02:13:10;;;;;;;25.97;13.00;;;;;;;-0.46;77.80;100834.30;1683386;82;25891;-78
2020/12/27 02:15:38;;;;;;;33.05;15.00;;;;;;;-0.46;77.78;100828.19;1699600;80;25848;-78
2020/12/27 02:18:24;;;;;;;35.10;15.68;;;;;;;-0.45;77.74;100824.61;1709971;80;25935;-78
2020/12/27 02:20:52;;;;;;;32.42;14.07;;;;;;;-0.48;77.70;100819.09;1747586;80;27523;-78
2020/12/27 02:23:22;;;;;;;29.45;13.35;;;;;;;-0.48;77.61;100819.56;1718171;81;25828;-78
2020/12/27 02:25:54;;;;;;;27.52;13.53;;;;;;;-0.49;77.69;100821.84;1718130;80;25841;-78
2020/12/27 02:28:32;;;;;;;24.18;11.40;;;;;;;-0.45;77.57;100806.20;1796346;79;26356;-78
2020/12/27 02:31:00;;;;;;;30.52;12.23;;;;;;;-0.51;77.44;100807.47;1771553;79;25829;-78
2020/12/27 02:33:29;;;;;;;32.40;12.80;;;;;;;-0.51;77.51;100800.07;1745577;80;27309;-78
2020/12/27 02:35:57;;;;;;;27.37;12.37;;;;;;;-0.52;77.47;100799.22;1761412;80;25829;-77
2020/12/27 02:38:25;;;;;;;28.75;12.73;;;;;;;-0.51;77.73;100797.44;1746124;80;25890;-77
2020/12/27 02:40:52;;;;;;;28.92;12.47;;;;;;;-0.52;77.59;100784.75;1715442;79;25800;-78
2020/12/27 02:43:29;;;;;;;27.85;12.40;;;;;;;-0.45;77.34;100781.20;1791608;79;25731;-78
2020/12/27 02:45:57;;;;;;;28.35;11.70;;;;;;;-0.50;77.40;100780.69;1738257;80;26144;-77
2020/12/27 02:48:30;;;;;;;29.37;12.88;;;;;;;-0.50;77.11;100778.91;1695137;83;28304;-78
2020/12/27 02:50:59;;;;;;;25.55;12.37;;;;;;;-0.56;77.12;100780.67;1703470;83;26101;-78
2020/12/27 02:53:28;;;;;;;23.85;12.13;;;;;;;-0.56;77.01;100778.04;1704516;81;26525;-78
2020/12/27 02:55:55;;;;;;;26.52;11.80;;;;;;;-0.56;77.03;100785.08;1719822;83;25884;-78
2020/12/27 02:58:23;;;;;;;31.00;13.05;;;;;;;-0.55;77.10;100784.11;1699325;81;25852;-78
2020/12/27 03:00:52;;;;;;;27.73;11.45;;;;;;;-0.57;77.00;100792.13;1724127;81;28431;-78
2020/12/27 03:03:38;;;;;;;27.37;12.33;;;;;;;-0.62;77.01;100779.77;1687719;81;26061;-78
2020/12/27 03:06:11;;;;;;;29.20;12.68;;;;;;;-0.57;76.92;100788.18;1697771;82;26478;-78
2020/12/27 03:08:40;;;;;;;28.42;12.15;;;;;;;-0.54;76.92;100795.02;1693429;83;25895;-78
2020/12/27 03:11:25;;;;;;;26.33;12.82;;;;;;;-0.56;76.84;100791.66;1724914;81;25898;-78
2020/12/27 03:13:54;;;;;;;26.95;11.15;;;;;;;-0.65;76.84;100787.91;1683393;81;28233;-77
2020/12/27 03:16:22;;;;;;;28.25;11.85;;;;;;;-0.62;76.73;100795.55;1719651;82;26101;-78
2020/12/27 03:18:59;;;;;;;26.27;11.78;;;;;;;-0.58;76.79;100791.78;1810908;77;26301;-78
2020/12/27 03:21:34;;;;;;;22.93;11.60;;;;;;;-0.61;76.79;100798.56;1779694;79;25673;-78
2020/12/27 03:24:03;;;;;;;22.27;11.03;;;;;;;-0.59;76.58;100789.23;1734902;80;27398;-77
2020/12/27 03:26:32;;;;;;;21.60;11.00;;;;;;;-0.65;76.56;100787.91;1707218;82;26360;-78
2020/12/27 03:29:00;;;;;;;27.85;13.08;;;;;;;-0.65;76.66;100783.96;1648926;83;25696;-78
2020/12/27 03:31:28;;;;;;;23.25;11.97;;;;;;;-0.64;76.67;100780.86;1645068;83;25862;-77
2020/12/27 03:33:57;;;;;;;28.85;13.30;;;;;;;-0.65;76.58;100775.22;1651603;84;25882;-78
2020/12/27 03:36:24;;;;;;;22.62;11.88;;;;;;;-0.66;76.47;100772.25;1685382;83;27532;-77
2020/12/27 03:38:53;;;;;;;21.37;11.33;;;;;;;-0.66;76.47;100772.25;1672759;83;25896;-78
2020/12/27 03:41:23;;;;;;;26.85;12.03;;;;;;;-0.69;76.53;100774.62;1642419;83;25858;-77
2020/12/27 03:43:52;;;;;;;25.97;12.00;;;;;;;-0.77;76.47;100759.88;1664174;83;25777;-78
2020/12/27 03:46:21;;;;;;;28.92;12.78;;;;;;;-0.77;76.47;100759.88;1680628;83;26243;-78
2020/12/27 03:48:50;;;;;;;24.20;12.13;;;;;;;-0.82;76.41;100748.37;1637312;85;27546;-78
2020/12/27 03:51:45;;;;;;;26.23;11.33;;;;;;;-0.72;76.47;100754.25;1815222;78;26388;-78
2020/12/27 03:54:15;;;;;;;27.87;11.90;;;;;;;-0.81;76.50;100751.81;1764806;79;25613;-77
2020/12/27 03:56:52;;;;;;;28.10;11.70;;;;;;;-0.77;76.40;100741.47;1823801;77;25796;-78
2020/12/27 03:59:39;;;;;;;23.10;11.55;;;;;;;-0.84;76.46;100741.06;1737058;78;25928;-78
2020/12/27 04:02:08;;;;;;;22.82;11.35;;;;;;;-0.85;76.41;100741.16;1781735;79;28439;-78
2020/12/27 04:04:36;;;;;;;23.77;10.98;;;;;;;-0.91;76.32;100728.45;1783747;80;25984;-78
2020/12/27 04:07:05;;;;;;;23.42;10.50;;;;;;;-0.86;76.30;100739.02;1748936;80;25763;-78
2020/12/27 04:09:45;;;;;;;23.30;11.18;;;;;;;-0.82;76.31;100736.53;1838226;77;26372;-78
2020/12/27 04:12:13;;;;;;;21.95;10.72;;;;;;;-0.89;76.37;100734.44;1784199;78;26156;-78
2020/12/27 04:14:41;;;;;;;26.82;11.75;;;;;;;-0.89;76.41;100725.23;1788466;79;27075;-78
2020/12/27 04:17:09;;;;;;;26.40;11.73;;;;;;;-0.93;76.23;100728.58;1776488;80;25944;-78
2020/12/27 04:19:37;;;;;;;26.50;11.22;;;;;;;-0.95;76.22;100720.42;1733134;80;26146;-78
2020/12/27 04:22:17;;;;;;;26.33;11.78;;;;;;;-0.91;76.10;100713.99;1795971;79;25650;-78
2020/12/27 04:24:49;;;;;;;24.10;11.22;;;;;;;-0.96;76.15;100717.42;1704768;81;25797;-78
2020/12/27 04:27:17;;;;;;;25.10;11.75;;;;;;;-0.96;76.14;100699.02;1749389;80;27985;-78
2020/12/27 04:29:45;;;;;;;25.60;12.28;;;;;;;-0.96;76.04;100698.55;1771877;80;26020;-78
2020/12/27 04:32:15;;;;;;;21.27;11.43;;;;;;;-0.98;76.05;100696.98;1720215;81;25740;-78
2020/12/27 04:34:47;;;;;;;24.50;12.03;;;;;;;-1.00;76.01;100692.30;1683928;81;25952;-78
2020/12/27 04:37:14;;;;;;;28.10;12.65;;;;;;;-1.02;76.06;100694.20;1766893;80;26464;-78
2020/12/27 04:39:43;;;;;;;29.07;11.53;;;;;;;-1.02;75.94;100698.16;1774659;80;27696;-78
2020/12/27 04:42:11;;;;;;;29.65;14.03;;;;;;;-1.01;75.90;100699.84;1721057;81;25909;-78
2020/12/27 04:44:41;;;;;;;25.37;12.05;;;;;;;-1.00;75.88;100707.61;1747993;80;25767;-77
2020/12/27 04:47:13;;;;;;;35.20;14.75;;;;;;;-1.00;75.75;100708.08;1740110;80;32691;-78
2020/12/27 04:49:43;;;;;;;35.10;14.03;;;;;;;-1.01;75.61;100702.48;1771991;80;25815;-78
2020/12/27 04:52:12;;;;;;;34.03;14.80;;;;;;;-1.01;75.67;100702.01;1648265;81;27558;-78
2020/12/27 04:54:53;;;;;;;31.95;13.43;;;;;;;-0.96;75.73;100699.86;1800342;77;25661;-78
2020/12/27 04:57:24;;;;;;;35.38;14.73;;;;;;;-1.02;75.61;100714.77;1720111;82;25837;-78
2020/12/27 04:59:54;;;;;;;29.18;13.28;;;;;;;-1.03;75.73;100713.58;1714336;80;28225;-78
2020/12/27 05:02:24;;;;;;;30.92;14.38;;;;;;;-1.08;76.00;100694.66;1752399;80;25831;-78
2020/12/27 05:04:53;;;;;;;27.30;12.85;;;;;;;-1.08;76.00;100694.66;1689995;81;25817;-78
2020/12/27 05:07:44;;;;;;;34.92;15.40;;;;;;;-0.99;75.63;100703.20;1777991;79;25683;-78
2020/12/27 05:10:16;;;;;;;32.10;13.93;;;;;;;-1.04;75.72;100699.59;1722345;82;25833;-78
2020/12/27 05:12:45;;;;;;;34.25;14.83;;;;;;;-1.03;75.64;100692.55;1708256;80;27163;-77
2020/12/27 05:15:13;;;;;;;30.90;14.98;;;;;;;-1.05;75.59;100691.32;1721353;80;26243;-78
2020/12/27 05:17:42;;;;;;;33.33;16.17;;;;;;;-1.10;75.44;100680.78;1697740;80;25785;-78
2020/12/27 05:20:14;;;;;;;31.52;14.18;;;;;;;-1.10;75.44;100680.78;1702782;80;25865;-78
2020/12/27 05:22:42;;;;;;;37.42;14.98;;;;;;;-1.23;75.23;100656.34;1717743;80;25941;-79
2020/12/27 05:25:14;;;;;;;34.08;15.38;;;;;;;-1.23;75.23;100656.34;1730249;82;27524;-78
2020/12/27 05:27:53;;;;;;;34.63;15.90;;;;;;;-1.23;75.51;100666.38;1700809;80;25847;-78
2020/12/27 05:30:35;;;;;;;33.55;15.50;;;;;;;-1.25;75.55;100671.37;1719316;82;25390;-78
2020/12/27 05:33:21;;;;;;;31.27;14.83;;;;;;;-1.26;75.62;100666.59;1732441;80;25718;-78
2020/12/27 05:36:11;;;;;;;34.27;17.07;;;;;;;-1.22;75.53;100656.22;1795311;79;25833;-78
2020/12/27 05:38:45;;;;;;;33.15;15.63;;;;;;;-1.28;75.53;100651.91;1727135;80;25772;-78
2020/12/27 05:41:30;;;;;;;33.28;15.95;;;;;;;-1.29;75.70;100659.41;1745517;80;27111;-78
2020/12/27 05:44:10;;;;;;;40.97;20.70;;;;;;;-1.25;75.51;100667.44;1780111;79;33062;-78
2020/12/27 05:46:37;;;;;;;40.17;19.57;;;;;;;-1.14;75.18;100660.47;1729526;81;25894;-78
2020/12/27 05:49:05;;;;;;;35.63;16.95;;;;;;;-1.19;75.04;100664.36;1751837;80;27265;-78
2020/12/27 05:51:35;;;;;;;43.38;20.17;;;;;;;-1.24;75.34;100658.12;1770509;80;25726;-78
2020/12/27 05:54:05;;;;;;;35.63;19.67;;;;;;;-1.26;75.38;100657.39;1728922;80;26157;-78
2020/12/27 05:56:38;;;;;;;41.40;19.48;;;;;;;-1.30;75.28;100665.13;1735364;80;26012;-78
2020/12/27 05:59:06;;;;;;;43.55;18.75;;;;;;;-1.32;75.43;100652.58;1743989;80;26524;-78
2020/12/27 06:01:38;;;;;;;40.25;19.12;;;;;;;-1.35;75.36;100658.55;1758700;80;27625;-78
2020/12/27 06:04:13;;;;;;;34.65;17.95;;;;;;;-1.36;75.25;100651.13;1741344;80;26275;-77
2020/12/27 06:07:04;;;;;;;36.05;17.75;;;;;;;-1.36;75.25;100651.13;1713834;83;26516;-78
2020/12/27 06:10:09;;;;;;;42.03;19.90;;;;;;;-1.41;75.51;100650.61;1704004;81;25930;-78
2020/12/27 06:13:04;;;;;;;38.08;17.87;;;;;;;-1.41;75.51;100650.61;1696318;83;25909;-78
2020/12/27 06:15:36;;;;;;;39.88;17.90;;;;;;;-1.45;75.45;100655.72;1702389;83;27532;-78
2020/12/27 06:18:28;;;;;;;39.48;18.15;;;;;;;-1.49;75.41;100646.38;1738616;81;26055;-78
2020/12/27 06:21:12;;;;;;;44.45;18.62;;;;;;;-1.40;75.36;100656.70;1822800;77;25880;-78
2020/12/27 06:23:45;;;;;;;41.30;21.02;;;;;;;-1.45;75.45;100664.91;1754685;78;26197;-78
2020/12/27 06:26:13;;;;;;;44.33;19.00;;;;;;;-1.44;75.32;100661.81;1793956;78;28222;-78
2020/12/27 06:28:44;;;;;;;34.18;17.30;;;;;;;-1.46;75.34;100667.19;1732255;81;25714;-77
2020/12/27 06:31:23;;;;;;;35.35;17.85;;;;;;;-1.57;75.39;100657.91;1719989;82;26114;-77
2020/12/27 06:33:53;;;;;;;34.80;18.90;;;;;;;-1.49;75.34;100685.78;1735501;80;25800;-78
2020/12/27 06:36:35;;;;;;;35.03;17.05;;;;;;;-1.48;75.37;100677.44;1758259;80;26439;-78
2020/12/27 06:39:29;;;;;;;38.55;18.05;;;;;;;-1.44;75.28;100667.92;1792159;78;25782;-78
2020/12/27 06:42:20;;;;;;;37.30;17.52;;;;;;;-1.49;75.28;100680.53;1711823;80;25967;-78
2020/12/27 06:45:30;;;;;;;38.17;17.40;;;;;;;-1.39;75.36;100678.92;1807457;77;25777;-78
2020/12/27 06:48:36;;;;;;;33.63;15.53;;;;;;;-1.42;75.24;100671.27;1724228;80;26551;-78
2020/12/27 06:51:33;;;;;;;34.13;15.72;;;;;;;-1.36;75.08;100666.89;1795394;78;25772;-78
2020/12/27 06:54:01;;;;;;;31.68;14.73;;;;;;;-1.42;75.28;100662.08;1738147;80;25734;-78
2020/12/27 06:56:45;;;;;;;29.72;14.70;;;;;;;-1.48;75.04;100641.97;1731484;80;27323;-78
2020/12/27 06:59:28;;;;;;;32.33;15.13;;;;;;;-1.37;75.15;100639.42;1834668;77;25846;-78
2020/12/27 07:02:07;;;;;;;30.88;16.07;;;;;;;-1.42;75.46;100635.81;1762844;80;25846;-78
2020/12/27 07:04:38;;;;;;;28.05;13.43;;;;;;;-1.42;75.46;100635.81;1770232;78;27389;-78
2020/12/27 07:07:05;;;;;;;;;;;;;;;-1.44;74.84;100632.45;1802005;78;26312;-78
2020/12/27 07:09:37;;;;;;;33.75;13.83;;;;;;;-1.44;74.96;100626.36;1775352;79;25896;-78
2020/12/27 07:12:10;;;;;;;28.62;14.07;;;;;;;-1.44;75.03;100627.20;1751775;79;26526;-78
2020/12/27 07:14:42;;;;;;;28.23;14.23;;;;;;;-1.47;75.15;100620.84;1765921;77;25833;-78
2020/12/27 07:17:11;;;;;;;33.15;14.90;;;;;;;-1.47;75.15;100620.84;1749171;79;28536;-77
2020/12/27 07:19:39;;;;;;;29.85;14.60;;;;;;;-1.43;74.90;100627.55;1743089;79;26079;-78
2020/12/27 07:22:09;;;;;;;34.90;14.20;;;;;;;-1.42;74.91;100632.34;1771657;79;26171;-78
2020/12/27 07:24:39;;;;;;;37.58;15.78;;;;;;;-1.39;74.97;100638.70;1766163;79;25890;-78
2020/12/27 07:27:10;;;;;;;32.93;15.18;;;;;;;-1.39;74.91;100643.45;1751631;79;25959;-78
2020/12/27 07:29:39;;;;;;;26.23;13.32;;;;;;;-1.36;74.98;100645.03;1730860;79;27640;-78
2020/12/27 07:32:07;;;;;;;27.50;14.10;;;;;;;-1.33;74.83;100645.67;1793567;79;26344;-78
2020/12/27 07:34:35;;;;;;;27.05;13.80;;;;;;;-1.36;74.67;100628.80;1769905;79;25667;-78
2020/12/27 07:37:07;;;;;;;28.50;14.15;;;;;;;-1.28;74.73;100634.33;1759317;79;26060;-78
2020/12/27 07:39:57;;;;;;;27.77;13.80;;;;;;;-1.26;74.57;100633.74;1760707;79;26106;-78
2020/12/27 07:42:28;;;;;;;23.22;11.65;;;;;;;-1.26;74.57;100633.74;1763706;79;28007;-78
2020/12/27 07:45:03;;;;;;;25.57;12.15;;;;;;;-1.19;74.39;100627.57;1769590;79;25897;-78
2020/12/27 07:47:41;;;;;;;23.27;11.80;;;;;;;-1.08;74.53;100632.89;1773240;79;26090;-78
2020/12/27 07:50:14;;;;;;;26.10;11.70;;;;;;;-1.12;74.53;100628.34;1684495;82;25760;-78
2020/12/27 07:52:58;;;;;;;26.55;13.68;;;;;;;-1.07;74.42;100620.13;1706386;82;27345;-78
2020/12/27 07:55:31;;;;;;;23.73;13.00;;;;;;;-1.05;74.67;100622.98;1732158;82;25898;-78
2020/12/27 07:58:07;;;;;;;26.52;12.05;;;;;;;-0.99;74.65;100618.61;1683801;82;25845;-78
2020/12/27 08:00:42;;;;;;;27.73;12.40;;;;;;;-0.98;74.31;100611.06;1683336;82;26327;-78
2020/12/27 08:03:10;;;;;;;25.37;12.03;;;;;;;-0.94;74.64;100604.62;1703053;82;25724;-78
2020/12/27 08:05:39;;;;;;;23.65;11.33;;;;;;;-0.90;74.47;100592.92;1695868;82;27531;-78
2020/12/27 08:08:12;;;;;;;31.93;13.88;;;;;;;-0.86;74.16;100586.98;1612610;83;26368;-78
2020/12/27 08:10:40;;;;;;;39.92;20.08;;;;;;;-0.77;74.39;100584.98;1652374;84;25410;-78
2020/12/27 08:13:10;;;;;;;30.30;14.98;;;;;;;-0.77;74.39;100584.98;1653467;84;26005;-78
2020/12/27 08:15:40;;;;;;;28.77;13.50;;;;;;;-0.75;74.66;100580.45;1678417;84;25746;-77
2020/12/27 08:18:10;;;;;;;;;;;;;;;-0.65;74.38;100581.89;1630734;84;28465;-78
2020/12/27 08:20:51;;;;;;;21.73;12.28;;;;;;;-0.61;74.60;100573.66;1653977;84;26106;-78
2020/12/27 08:23:20;;;;;;;23.32;13.25;;;;;;;-0.59;74.55;100557.28;1654334;84;25787;-78
2020/12/27 08:25:57;;;;;;;24.95;13.70;;;;;;;-0.53;74.31;100567.33;1655338;85;26177;-77
2020/12/27 08:28:26;;;;;;;29.20;17.40;;;;;;;-0.44;74.45;100551.31;1681236;84;25805;-78
2020/12/27 08:30:53;;;;;;;41.15;23.85;;;;;;;-0.44;74.45;100551.31;1643864;83;28480;-78
2020/12/27 08:33:22;;;;;;;23.85;12.90;;;;;;;-0.38;74.29;100560.05;1644819;83;25812;-78
2020/12/27 08:35:51;;;;;;;24.95;12.53;;;;;;;-0.33;74.03;100561.86;1625411;86;25593;-77
2020/12/27 08:38:47;;;;;;;25.80;12.05;;;;;;;-0.35;73.65;100550.14;1648151;85;25837;-78
2020/12/27 08:41:26;;;;;;;24.72;13.13;;;;;;;-0.35;73.65;100550.14;1653824;85;25812;-78
2020/12/27 08:44:21;;;;;;;23.42;12.50;;;;;;;-0.26;73.55;100567.86;1653637;85;27337;-78
2020/12/27 08:46:51;;;;;;;26.37;16.95;;;;;;;-0.21;73.58;100576.22;1676688;83;26136;-78
2020/12/27 08:49:30;;;;;;;22.20;12.58;;;;;;;-0.16;73.64;100570.60;1645227;85;25933;-78
2020/12/27 08:52:05;;;;;;;25.80;15.50;;;;;;;-0.12;73.65;100568.08;1655516;84;25793;-77
2020/12/27 08:54:34;;;;;;;26.10;14.07;;;;;;;-0.08;73.40;100562.47;1660232;84;25853;-77
2020/12/27 08:57:06;;;;;;;53.63;31.97;;;;;;;0.03;73.33;100550.24;1644325;84;27533;-78
2020/12/27 08:59:34;;;;;;;37.30;24.45;;;;;;;0.03;73.33;100550.24;1668186;83;25916;-78
2020/12/27 09:02:10;;;;;;;42.43;28.25;;;;;;;0.07;73.32;100549.03;1664492;84;25781;-77
2020/12/27 09:04:39;;;;;;;49.30;29.12;;;;;;;0.12;73.18;100546.41;1659455;84;25806;-78
2020/12/27 09:07:11;;;;;;;56.90;34.60;;;;;;;0.16;72.94;100545.21;1634937;84;26122;-78
2020/12/27 09:09:38;;;;;;;97.22;47.73;;;;;;;0.19;73.03;100531.81;1654912;84;27559;-78
2020/12/27 09:12:11;;;;;;;225.80;91.12;;;;;;;0.25;73.03;100537.90;1654831;84;26544;-78
2020/12/27 09:14:40;;;;;;;180.30;78.67;;;;;;;0.29;72.90;100523.99;1628993;84;25676;-80
2020/12/27 09:17:12;;;;;;;180.20;85.80;;;;;;;0.33;72.71;100508.30;1616708;84;25904;-78
2020/12/27 09:19:46;;;;;;;134.20;63.28;;;;;;;0.37;72.48;100500.49;1679586;83;25825;-78
2020/12/27 09:22:15;;;;;;;42.78;22.85;;;;;;;0.40;72.53;100493.20;1655394;84;28247;-78
2020/12/27 09:24:43;;;;;;;36.98;18.42;;;;;;;0.42;72.29;100484.69;1657809;84;25996;-78
2020/12/27 09:27:12;;;;;;;24.52;13.43;;;;;;;0.48;72.41;100491.23;1636907;84;26145;-78
2020/12/27 09:29:40;;;;;;;40.48;14.83;;;;;;;0.52;72.17;100478.16;1657203;84;26076;-78
2020/12/27 09:32:13;;;;;;;69.20;27.25;;;;;;;0.54;72.44;100474.45;1650636;84;25801;-78
2020/12/27 09:34:55;;;;;;;57.33;28.02;;;;;;;0.67;72.25;100469.84;1791999;77;26232;-78
2020/12/27 09:37:23;;;;;;;30.55;18.35;;;;;;;0.65;72.29;100459.91;1725117;81;26453;-77
2020/12/27 09:39:57;;;;;;;29.05;18.17;;;;;;;0.70;71.72;100464.80;1708881;82;28299;-80
2020/12/27 09:42:27;;;;;;;24.85;11.88;;;;;;;0.72;72.26;100447.90;1716128;82;25783;-80
2020/12/27 09:44:57;;;;;;;18.87;10.05;;;;;;;0.75;71.70;100445.47;1714423;82;25870;-80
2020/12/27 09:47:28;;;;;;;19.48;10.13;;;;;;;0.78;71.85;100443.91;1707895;80;25414;-81
2020/12/27 09:50:08;;;;;;;16.73;9.10;;;;;;;0.80;71.68;100451.20;1713762;82;25873;-81
2020/12/27 09:52:45;;;;;;;18.73;9.45;;;;;;;0.82;71.70;100454.55;1743617;82;27302;-80
2020/12/27 09:55:14;;;;;;;24.10;12.43;;;;;;;0.88;71.57;100450.58;1695441;82;26345;-80
2020/12/27 09:57:42;;;;;;;24.18;12.10;;;;;;;0.91;71.65;100442.39;1691426;82;25781;-80
2020/12/27 10:00:10;;;;;;;20.68;9.83;;;;;;;0.93;71.15;100443.94;1715986;82;25905;-80
2020/12/27 10:02:38;;;;;;;18.90;12.55;;;;;;;0.94;70.93;100429.77;1709249;83;26184;-80
2020/12/27 10:05:08;;;;;;;20.05;10.50;;;;;;;0.97;71.22;100428.68;1663890;83;28462;-80
2020/12/27 10:07:38;;;;;;;20.68;10.70;;;;;;;0.99;70.88;100429.38;1681345;83;25633;-81
2020/12/27 10:10:09;;;;;;;24.32;12.15;;;;;;;1.02;71.05;100429.14;1677324;83;26140;-77
2020/12/27 10:12:38;;;;;;;18.75;10.70;;;;;;;1.05;71.19;100427.58;1683444;83;26092;-78
2020/12/27 10:15:09;;;;;;;21.15;11.73;;;;;;;1.08;70.67;100412.78;1636392;83;25874;-78
2020/12/27 10:17:37;;;;;;;;;;;;;;;1.08;70.60;100410.99;1654939;86;27531;-78
2020/12/27 10:20:10;;;;;;;18.47;10.80;;;;;;;1.08;70.29;100407.03;1670297;84;25873;-79
2020/12/27 10:22:38;;;;;;;19.75;10.60;;;;;;;1.07;70.16;100397.44;1623523;85;25834;-78
2020/12/27 10:25:07;;;;;;;32.78;17.45;;;;;;;1.07;70.17;100394.80;1615374;84;26508;-77
2020/12/27 10:27:36;;;;;;;21.17;9.90;;;;;;;1.09;70.21;100384.14;1694322;83;25750;-81
2020/12/27 10:30:05;;;;;;;22.55;12.33;;;;;;;1.09;69.93;100372.27;1661416;84;27985;-81
2020/12/27 10:32:34;;;;;;;19.23;9.68;;;;;;;1.10;70.04;100372.61;1664978;83;25413;-81
2020/12/27 10:35:03;;;;;;;41.25;18.80;;;;;;;1.11;69.68;100365.87;1623337;84;26117;-80
2020/12/27 10:37:31;;;;;;;22.22;11.73;;;;;;;1.10;69.74;100358.94;1647651;83;26513;-81
2020/12/27 10:40:00;;;;;;;24.70;12.50;;;;;;;1.14;69.79;100364.30;1657405;85;25911;-81
2020/12/27 10:42:27;;;;;;;22.40;11.90;;;;;;;1.16;69.69;100356.24;1646554;85;27560;-81
2020/12/27 10:44:55;;;;;;;22.87;10.60;;;;;;;1.18;69.90;100351.19;1637717;85;25998;-81
2020/12/27 10:47:23;;;;;;;23.40;11.88;;;;;;;1.20;69.14;100347.09;1644874;85;26245;-81
2020/12/27 10:49:51;;;;;;;42.48;23.12;;;;;;;1.20;68.93;100340.02;1660148;85;25761;-81
2020/12/27 10:52:18;;;;;;;22.25;11.28;;;;;;;1.23;69.42;100337.61;1660041;85;26472;-81
2020/12/27 10:54:46;;;;;;;21.87;12.90;;;;;;;1.26;69.50;100332.88;1638555;85;27526;-81
2020/12/27 10:57:13;;;;;;;18.70;10.85;;;;;;;1.28;69.52;100330.95;1656434;85;26444;-81
2020/12/27 10:59:41;;;;;;;19.67;9.93;;;;;;;1.32;69.33;100331.53;1661122;83;25740;-81
2020/12/27 11:02:10;;;;;;;19.48;10.10;;;;;;;1.33;69.30;100328.75;1660856;85;25778;-81
2020/12/27 11:04:43;;;;;;;24.32;11.88;;;;;;;1.36;68.56;100321.05;1632510;85;26057;-81
2020/12/27 11:07:12;;;;;;;23.98;11.83;;;;;;;1.38;69.04;100316.00;1656934;85;27625;-79
2020/12/27 11:09:43;;;;;;;21.45;12.43;;;;;;;1.41;69.02;100308.30;1680384;83;25875;-79
2020/12/27 11:12:10;;;;;;;19.98;10.48;;;;;;;1.42;68.91;100298.08;1623138;85;25959;-79
2020/12/27 11:14:38;;;;;;;20.02;10.55;;;;;;;1.43;68.79;100290.53;1634749;83;26427;-79
2020/12/27 11:17:06;;;;;;;25.55;11.90;;;;;;;1.44;68.76;100281.63;1681796;85;25801;-79
2020/12/27 11:19:33;;;;;;;18.67;10.10;;;;;;;1.47;67.56;100285.32;1655984;85;27087;-78
2020/12/27 11:22:01;;;;;;;17.37;9.13;;;;;;;1.49;68.46;100283.38;1660136;85;25902;-79
2020/12/27 11:24:28;;;;;;;19.35;9.28;;;;;;;1.47;68.17;100276.08;1668897;83;25835;-79
2020/12/27 11:26:56;;;;;;;19.27;10.13;;;;;;;1.50;68.22;100279.75;1685501;85;25902;-79
2020/12/27 11:29:24;;;;;;;18.60;9.75;;;;;;;1.53;68.21;100271.58;1659495;85;25754;-79
2020/12/27 11:31:55;;;;;;;18.60;10.25;;;;;;;1.55;67.80;100266.51;1669184;83;28286;-79
2020/12/27 11:34:22;;;;;;;16.52;8.95;;;;;;;1.56;67.51;100265.52;1660891;85;25788;-79